sensor_id;sensor_type;location;lat;lon;timestamp;P1;durP1;ratioP1;P2;durP2;ratioP2
43146;SDS011;28752;48.266;7.402;2023-06-01T00:02:20;4.20;;;1.50;;
43146;SDS011;28752;48.266;7.402;2023-06-01T00:04:46;3.53;;;1.73;;
43146;SDS011;28752;48.266;7.402;2023-06-01T00:07:13;5.13;;;1.33;;
43146;SDS011;28752;48.266;7.402;2023-06-01T00:09:38;4.63;;;1.60;;
43146;SDS011;28752;48.266;7.402;2023-06-01T00:12:04;2.90;;;1.20;;
43146;SDS011;28752;48.266;7.402;2023-06-01T00:14:30;2.83;;;1.50;;
43146;SDS011;28752;48.266;7.402;2023-06-01T00:16:56;3.47;;;1.40;;
43146;SDS011;28752;48.266;7.402;2023-06-01T00:19:22;3.13;;;1.70;;
43146;SDS011;28752;48.266;7.402;2023-06-01T00:21:50;4.53;;;1.70;;
43146;SDS011;28752;48.266;7.402;2023-06-01T00:24:15;3.63;;;1.35;;
43146;SDS011;28752;48.266;7.402;2023-06-01T00:26:40;5.63;;;1.70;;
43146;SDS011;28752;48.266;7.402;2023-06-01T00:29:06;4.03;;;1.40;;
43146;SDS011;28752;48.266;7.402;2023-06-01T00:31:31;2.83;;;1.40;;
43146;SDS011;28752;48.266;7.402;2023-06-01T00:33:56;3.37;;;1.37;;
43146;SDS011;28752;48.266;7.402;2023-06-01T00:36:22;3.07;;;1.13;;
43146;SDS011;28752;48.266;7.402;2023-06-01T00:38:47;3.43;;;1.60;;
43146;SDS011;28752;48.266;7.402;2023-06-01T00:41:12;3.23;;;1.40;;
43146;SDS011;28752;48.266;7.402;2023-06-01T00:43:38;5.50;;;1.57;;
43146;SDS011;28752;48.266;7.402;2023-06-01T00:46:03;2.83;;;1.40;;
43146;SDS011;28752;48.266;7.402;2023-06-01T00:48:28;4.47;;;1.80;;
43146;SDS011;28752;48.266;7.402;2023-06-01T00:50:54;4.75;;;1.48;;
43146;SDS011;28752;48.266;7.402;2023-06-01T00:53:22;3.65;;;1.35;;
43146;SDS011;28752;48.266;7.402;2023-06-01T00:55:47;5.07;;;1.80;;
43146;SDS011;28752;48.266;7.402;2023-06-01T00:58:13;4.87;;;1.40;;
43146;SDS011;28752;48.266;7.402;2023-06-01T01:00:39;4.50;;;1.77;;
43146;SDS011;28752;48.266;7.402;2023-06-01T01:05:35;4.45;;;1.52;;
43146;SDS011;28752;48.266;7.402;2023-06-01T01:10:59;3.33;;;1.80;;
43146;SDS011;28752;48.266;7.402;2023-06-01T01:19:11;4.13;;;1.83;;
43146;SDS011;28752;48.266;7.402;2023-06-01T01:22:03;4.55;;;1.67;;
43146;SDS011;28752;48.266;7.402;2023-06-01T01:24:54;3.63;;;1.60;;
43146;SDS011;28752;48.266;7.402;2023-06-01T01:30:14;4.07;;;1.83;;
43146;SDS011;28752;48.266;7.402;2023-06-01T01:32:44;3.85;;;1.70;;
43146;SDS011;28752;48.266;7.402;2023-06-01T01:35:10;3.85;;;1.83;;
43146;SDS011;28752;48.266;7.402;2023-06-01T01:37:36;3.72;;;1.73;;
43146;SDS011;28752;48.266;7.402;2023-06-01T01:40:02;3.93;;;1.43;;
43146;SDS011;28752;48.266;7.402;2023-06-01T01:42:28;3.63;;;1.50;;
43146;SDS011;28752;48.266;7.402;2023-06-01T01:44:54;5.53;;;1.65;;
43146;SDS011;28752;48.266;7.402;2023-06-01T01:47:25;3.25;;;1.70;;
43146;SDS011;28752;48.266;7.402;2023-06-01T01:49:58;3.40;;;1.50;;
43146;SDS011;28752;48.266;7.402;2023-06-01T01:52:34;4.13;;;1.58;;
43146;SDS011;28752;48.266;7.402;2023-06-01T01:55:03;3.60;;;1.60;;
43146;SDS011;28752;48.266;7.402;2023-06-01T01:57:30;2.88;;;1.65;;
43146;SDS011;28752;48.266;7.402;2023-06-01T01:59:59;3.50;;;1.50;;
43146;SDS011;28752;48.266;7.402;2023-06-01T02:02:26;4.85;;;1.77;;
43146;SDS011;28752;48.266;7.402;2023-06-01T02:04:51;4.63;;;1.83;;
43146;SDS011;28752;48.266;7.402;2023-06-01T02:07:17;4.53;;;1.50;;
43146;SDS011;28752;48.266;7.402;2023-06-01T02:09:42;3.92;;;1.63;;
43146;SDS011;28752;48.266;7.402;2023-06-01T02:12:08;4.40;;;1.60;;
43146;SDS011;28752;48.266;7.402;2023-06-01T02:14:33;5.05;;;1.42;;
43146;SDS011;28752;48.266;7.402;2023-06-01T02:16:59;3.83;;;1.60;;
43146;SDS011;28752;48.266;7.402;2023-06-01T02:19:25;3.45;;;1.42;;
43146;SDS011;28752;48.266;7.402;2023-06-01T02:21:54;10.10;;;1.88;;
43146;SDS011;28752;48.266;7.402;2023-06-01T02:24:20;3.22;;;1.77;;
43146;SDS011;28752;48.266;7.402;2023-06-01T02:26:45;4.43;;;1.77;;
43146;SDS011;28752;48.266;7.402;2023-06-01T02:29:13;2.80;;;1.48;;
43146;SDS011;28752;48.266;7.402;2023-06-01T02:31:39;9.45;;;1.70;;
43146;SDS011;28752;48.266;7.402;2023-06-01T02:34:04;3.67;;;1.70;;
43146;SDS011;28752;48.266;7.402;2023-06-01T02:36:30;4.68;;;1.60;;
43146;SDS011;28752;48.266;7.402;2023-06-01T02:38:57;6.57;;;2.45;;
43146;SDS011;28752;48.266;7.402;2023-06-01T02:41:22;3.70;;;1.27;;
43146;SDS011;28752;48.266;7.402;2023-06-01T02:43:48;3.33;;;1.60;;
43146;SDS011;28752;48.266;7.402;2023-06-01T02:46:15;4.05;;;1.58;;
43146;SDS011;28752;48.266;7.402;2023-06-01T02:48:42;4.40;;;1.63;;
43146;SDS011;28752;48.266;7.402;2023-06-01T02:51:07;4.37;;;1.50;;
43146;SDS011;28752;48.266;7.402;2023-06-01T02:53:32;3.43;;;1.37;;
43146;SDS011;28752;48.266;7.402;2023-06-01T02:55:58;3.97;;;1.60;;
43146;SDS011;28752;48.266;7.402;2023-06-01T02:58:23;5.27;;;2.00;;
43146;SDS011;28752;48.266;7.402;2023-06-01T03:00:48;5.90;;;1.60;;
43146;SDS011;28752;48.266;7.402;2023-06-01T03:03:15;4.47;;;1.77;;
43146;SDS011;28752;48.266;7.402;2023-06-01T03:05:41;4.18;;;1.50;;
43146;SDS011;28752;48.266;7.402;2023-06-01T03:10:33;5.10;;;1.85;;
43146;SDS011;28752;48.266;7.402;2023-06-01T03:12:59;3.30;;;1.57;;
43146;SDS011;28752;48.266;7.402;2023-06-01T03:15:24;4.50;;;1.70;;
43146;SDS011;28752;48.266;7.402;2023-06-01T03:17:50;3.17;;;1.65;;
43146;SDS011;28752;48.266;7.402;2023-06-01T03:20:15;3.63;;;1.57;;
43146;SDS011;28752;48.266;7.402;2023-06-01T03:22:41;4.63;;;1.70;;
43146;SDS011;28752;48.266;7.402;2023-06-01T03:25:07;4.47;;;1.60;;
43146;SDS011;28752;48.266;7.402;2023-06-01T03:27:33;4.93;;;1.67;;
43146;SDS011;28752;48.266;7.402;2023-06-01T03:29:58;4.73;;;2.23;;
43146;SDS011;28752;48.266;7.402;2023-06-01T03:32:24;5.17;;;1.60;;
43146;SDS011;28752;48.266;7.402;2023-06-01T03:34:49;3.73;;;1.70;;
43146;SDS011;28752;48.266;7.402;2023-06-01T03:37:14;3.73;;;1.70;;
43146;SDS011;28752;48.266;7.402;2023-06-01T03:39:40;5.53;;;1.97;;
43146;SDS011;28752;48.266;7.402;2023-06-01T03:42:06;5.10;;;1.90;;
43146;SDS011;28752;48.266;7.402;2023-06-01T03:44:32;5.47;;;2.10;;
43146;SDS011;28752;48.266;7.402;2023-06-01T03:46:57;5.20;;;2.10;;
43146;SDS011;28752;48.266;7.402;2023-06-01T03:49:23;4.60;;;1.60;;
43146;SDS011;28752;48.266;7.402;2023-06-01T03:51:48;4.10;;;1.90;;
43146;SDS011;28752;48.266;7.402;2023-06-01T03:54:13;4.60;;;1.70;;
43146;SDS011;28752;48.266;7.402;2023-06-01T03:56:39;4.00;;;1.63;;
43146;SDS011;28752;48.266;7.402;2023-06-01T03:59:05;5.13;;;2.17;;
43146;SDS011;28752;48.266;7.402;2023-06-01T04:01:35;4.30;;;1.67;;
43146;SDS011;28752;48.266;7.402;2023-06-01T04:06:29;7.25;;;2.47;;
43146;SDS011;28752;48.266;7.402;2023-06-01T04:08:54;4.93;;;1.77;;
43146;SDS011;28752;48.266;7.402;2023-06-01T04:11:25;3.95;;;1.70;;
43146;SDS011;28752;48.266;7.402;2023-06-01T04:13:51;4.40;;;1.60;;
43146;SDS011;28752;48.266;7.402;2023-06-01T04:16:16;4.40;;;1.80;;
43146;SDS011;28752;48.266;7.402;2023-06-01T04:18:43;3.78;;;1.73;;
43146;SDS011;28752;48.266;7.402;2023-06-01T04:21:08;2.97;;;1.60;;
43146;SDS011;28752;48.266;7.402;2023-06-01T04:23:34;4.37;;;2.03;;
43146;SDS011;28752;48.266;7.402;2023-06-01T04:26:00;5.85;;;1.88;;
43146;SDS011;28752;48.266;7.402;2023-06-01T04:28:27;4.95;;;1.80;;
43146;SDS011;28752;48.266;7.402;2023-06-01T04:30:53;3.42;;;1.90;;
43146;SDS011;28752;48.266;7.402;2023-06-01T04:33:19;3.80;;;1.80;;
43146;SDS011;28752;48.266;7.402;2023-06-01T04:35:44;4.45;;;1.52;;
43146;SDS011;28752;48.266;7.402;2023-06-01T04:38:10;3.90;;;1.70;;
43146;SDS011;28752;48.266;7.402;2023-06-01T04:43:02;3.33;;;1.77;;
43146;SDS011;28752;48.266;7.402;2023-06-01T04:45:28;4.55;;;2.10;;
43146;SDS011;28752;48.266;7.402;2023-06-01T04:47:58;4.95;;;1.88;;
43146;SDS011;28752;48.266;7.402;2023-06-01T04:50:24;3.15;;;1.50;;
43146;SDS011;28752;48.266;7.402;2023-06-01T04:52:49;5.22;;;1.75;;
43146;SDS011;28752;48.266;7.402;2023-06-01T04:55:15;4.33;;;1.77;;
43146;SDS011;28752;48.266;7.402;2023-06-01T05:00:10;3.88;;;1.85;;
43146;SDS011;28752;48.266;7.402;2023-06-01T05:02:38;4.13;;;1.80;;
43146;SDS011;28752;48.266;7.402;2023-06-01T05:05:08;3.53;;;1.60;;
43146;SDS011;28752;48.266;7.402;2023-06-01T05:07:34;5.20;;;1.80;;
43146;SDS011;28752;48.266;7.402;2023-06-01T05:10:01;4.32;;;1.83;;
43146;SDS011;28752;48.266;7.402;2023-06-01T05:12:30;4.93;;;1.92;;
43146;SDS011;28752;48.266;7.402;2023-06-01T05:14:56;4.60;;;1.88;;
43146;SDS011;28752;48.266;7.402;2023-06-01T05:17:21;5.33;;;1.87;;
43146;SDS011;28752;48.266;7.402;2023-06-01T05:19:47;4.27;;;1.73;;
43146;SDS011;28752;48.266;7.402;2023-06-01T05:22:12;4.32;;;1.67;;
43146;SDS011;28752;48.266;7.402;2023-06-01T05:24:38;3.57;;;1.70;;
43146;SDS011;28752;48.266;7.402;2023-06-01T05:27:04;5.40;;;1.90;;
43146;SDS011;28752;48.266;7.402;2023-06-01T05:31:55;4.50;;;1.55;;
43146;SDS011;28752;48.266;7.402;2023-06-01T05:34:20;4.23;;;2.00;;
43146;SDS011;28752;48.266;7.402;2023-06-01T05:36:46;4.18;;;1.80;;
43146;SDS011;28752;48.266;7.402;2023-06-01T05:39:11;4.85;;;1.75;;
43146;SDS011;28752;48.266;7.402;2023-06-01T05:41:37;3.65;;;1.80;;
43146;SDS011;28752;48.266;7.402;2023-06-01T05:44:02;3.87;;;1.60;;
43146;SDS011;28752;48.266;7.402;2023-06-01T05:46:28;6.03;;;2.03;;
43146;SDS011;28752;48.266;7.402;2023-06-01T05:48:53;6.90;;;2.20;;
43146;SDS011;28752;48.266;7.402;2023-06-01T05:51:20;3.67;;;1.35;;
43146;SDS011;28752;48.266;7.402;2023-06-01T05:53:45;4.77;;;1.87;;
43146;SDS011;28752;48.266;7.402;2023-06-01T05:56:10;4.53;;;1.80;;
43146;SDS011;28752;48.266;7.402;2023-06-01T05:58:36;3.35;;;1.45;;
43146;SDS011;28752;48.266;7.402;2023-06-01T06:01:01;3.37;;;1.60;;
43146;SDS011;28752;48.266;7.402;2023-06-01T06:03:27;3.85;;;1.52;;
43146;SDS011;28752;48.266;7.402;2023-06-01T06:05:53;4.00;;;1.63;;
43146;SDS011;28752;48.266;7.402;2023-06-01T06:08:19;3.40;;;1.38;;
43146;SDS011;28752;48.266;7.402;2023-06-01T06:13:10;3.45;;;1.60;;
43146;SDS011;28752;48.266;7.402;2023-06-01T06:15:36;2.60;;;1.35;;
43146;SDS011;28752;48.266;7.402;2023-06-01T06:18:02;3.38;;;1.65;;
43146;SDS011;28752;48.266;7.402;2023-06-01T06:20:28;3.15;;;1.40;;
43146;SDS011;28752;48.266;7.402;2023-06-01T06:22:53;4.40;;;1.38;;
43146;SDS011;28752;48.266;7.402;2023-06-01T06:25:19;3.97;;;1.40;;
43146;SDS011;28752;48.266;7.402;2023-06-01T06:27:45;4.13;;;1.67;;
43146;SDS011;28752;48.266;7.402;2023-06-01T06:30:11;3.83;;;1.80;;
43146;SDS011;28752;48.266;7.402;2023-06-01T06:32:37;6.05;;;1.45;;
43146;SDS011;28752;48.266;7.402;2023-06-01T06:35:02;4.35;;;1.40;;
43146;SDS011;28752;48.266;7.402;2023-06-01T06:37:29;3.13;;;1.25;;
43146;SDS011;28752;48.266;7.402;2023-06-01T06:39:55;3.28;;;1.30;;
43146;SDS011;28752;48.266;7.402;2023-06-01T06:42:20;2.88;;;1.20;;
43146;SDS011;28752;48.266;7.402;2023-06-01T06:44:47;3.60;;;1.63;;
43146;SDS011;28752;48.266;7.402;2023-06-01T06:47:12;2.88;;;1.30;;
43146;SDS011;28752;48.266;7.402;2023-06-01T06:49:40;2.47;;;1.30;;
43146;SDS011;28752;48.266;7.402;2023-06-01T06:52:06;3.63;;;1.45;;
43146;SDS011;28752;48.266;7.402;2023-06-01T06:54:33;5.60;;;1.75;;
43146;SDS011;28752;48.266;7.402;2023-06-01T06:56:58;3.47;;;1.60;;
43146;SDS011;28752;48.266;7.402;2023-06-01T06:59:24;3.90;;;1.40;;
43146;SDS011;28752;48.266;7.402;2023-06-01T07:01:49;3.78;;;1.27;;
43146;SDS011;28752;48.266;7.402;2023-06-01T07:04:15;3.67;;;1.83;;
43146;SDS011;28752;48.266;7.402;2023-06-01T07:06:40;4.47;;;1.42;;
43146;SDS011;28752;48.266;7.402;2023-06-01T07:09:06;2.88;;;1.30;;
43146;SDS011;28752;48.266;7.402;2023-06-01T07:11:33;3.05;;;1.10;;
43146;SDS011;28752;48.266;7.402;2023-06-01T07:13:59;3.13;;;1.42;;
43146;SDS011;28752;48.266;7.402;2023-06-01T07:16:24;5.30;;;1.55;;
43146;SDS011;28752;48.266;7.402;2023-06-01T07:18:50;2.88;;;1.23;;
43146;SDS011;28752;48.266;7.402;2023-06-01T07:21:16;3.90;;;1.40;;
43146;SDS011;28752;48.266;7.402;2023-06-01T07:23:42;3.88;;;1.50;;
43146;SDS011;28752;48.266;7.402;2023-06-01T07:26:08;3.72;;;1.38;;
43146;SDS011;28752;48.266;7.402;2023-06-01T07:28:33;3.30;;;1.50;;
43146;SDS011;28752;48.266;7.402;2023-06-01T07:30:59;3.67;;;1.60;;
43146;SDS011;28752;48.266;7.402;2023-06-01T07:33:24;4.10;;;1.42;;
43146;SDS011;28752;48.266;7.402;2023-06-01T07:35:50;3.92;;;1.63;;
43146;SDS011;28752;48.266;7.402;2023-06-01T07:38:18;3.47;;;1.50;;
43146;SDS011;28752;48.266;7.402;2023-06-01T07:40:44;3.47;;;1.48;;
43146;SDS011;28752;48.266;7.402;2023-06-01T07:43:10;3.47;;;1.40;;
43146;SDS011;28752;48.266;7.402;2023-06-01T07:45:35;2.88;;;1.30;;
43146;SDS011;28752;48.266;7.402;2023-06-01T07:48:01;3.25;;;1.50;;
43146;SDS011;28752;48.266;7.402;2023-06-01T07:50:26;3.47;;;1.58;;
43146;SDS011;28752;48.266;7.402;2023-06-01T07:52:55;2.72;;;1.30;;
43146;SDS011;28752;48.266;7.402;2023-06-01T07:55:22;3.58;;;1.25;;
43146;SDS011;28752;48.266;7.402;2023-06-01T07:57:47;3.60;;;2.15;;
43146;SDS011;28752;48.266;7.402;2023-06-01T08:00:13;3.53;;;1.60;;
43146;SDS011;28752;48.266;7.402;2023-06-01T08:02:42;3.25;;;1.50;;
43146;SDS011;28752;48.266;7.402;2023-06-01T08:05:07;5.13;;;1.60;;
43146;SDS011;28752;48.266;7.402;2023-06-01T08:07:34;5.35;;;1.80;;
43146;SDS011;28752;48.266;7.402;2023-06-01T08:12:26;2.90;;;1.50;;
43146;SDS011;28752;48.266;7.402;2023-06-01T08:14:51;3.30;;;1.60;;
43146;SDS011;28752;48.266;7.402;2023-06-01T08:19:43;4.47;;;1.75;;
43146;SDS011;28752;48.266;7.402;2023-06-01T08:24:36;3.45;;;1.42;;
43146;SDS011;28752;48.266;7.402;2023-06-01T08:29:40;5.40;;;1.92;;
43146;SDS011;28752;48.266;7.402;2023-06-01T08:34:31;3.00;;;1.63;;
43146;SDS011;28752;48.266;7.402;2023-06-01T08:39:22;5.77;;;1.60;;
43146;SDS011;28752;48.266;7.402;2023-06-01T08:41:54;4.10;;;1.70;;
43146;SDS011;28752;48.266;7.402;2023-06-01T08:44:35;4.90;;;1.83;;
43146;SDS011;28752;48.266;7.402;2023-06-01T08:47:02;4.88;;;1.60;;
43146;SDS011;28752;48.266;7.402;2023-06-01T08:49:31;3.75;;;1.75;;
43146;SDS011;28752;48.266;7.402;2023-06-01T08:52:02;5.40;;;1.80;;
43146;SDS011;28752;48.266;7.402;2023-06-01T08:54:32;4.22;;;1.70;;
43146;SDS011;28752;48.266;7.402;2023-06-01T08:57:00;5.28;;;1.55;;
43146;SDS011;28752;48.266;7.402;2023-06-01T08:59:29;4.03;;;1.90;;
43146;SDS011;28752;48.266;7.402;2023-06-01T09:01:55;3.05;;;1.60;;
43146;SDS011;28752;48.266;7.402;2023-06-01T09:04:22;4.63;;;1.80;;
43146;SDS011;28752;48.266;7.402;2023-06-01T09:09:13;4.47;;;1.70;;
43146;SDS011;28752;48.266;7.402;2023-06-01T09:16:48;4.43;;;1.98;;
43146;SDS011;28752;48.266;7.402;2023-06-01T09:19:15;6.18;;;2.08;;
43146;SDS011;28752;48.266;7.402;2023-06-01T09:21:59;9.88;;;2.33;;
43146;SDS011;28752;48.266;7.402;2023-06-01T09:24:25;4.20;;;1.77;;
43146;SDS011;28752;48.266;7.402;2023-06-01T09:26:51;5.55;;;1.88;;
43146;SDS011;28752;48.266;7.402;2023-06-01T09:29:25;4.18;;;2.10;;
43146;SDS011;28752;48.266;7.402;2023-06-01T09:31:51;4.90;;;2.08;;
43146;SDS011;28752;48.266;7.402;2023-06-01T09:34:17;3.90;;;1.85;;
43146;SDS011;28752;48.266;7.402;2023-06-01T09:36:54;4.85;;;1.95;;
43146;SDS011;28752;48.266;7.402;2023-06-01T09:41:52;5.40;;;2.05;;
43146;SDS011;28752;48.266;7.402;2023-06-01T09:44:25;3.88;;;2.05;;
43146;SDS011;28752;48.266;7.402;2023-06-01T09:46:55;4.53;;;2.22;;
43146;SDS011;28752;48.266;7.402;2023-06-01T09:49:23;5.68;;;2.28;;
43146;SDS011;28752;48.266;7.402;2023-06-01T09:54:32;4.47;;;2.00;;
43146;SDS011;28752;48.266;7.402;2023-06-01T09:56:58;5.65;;;2.25;;
43146;SDS011;28752;48.266;7.402;2023-06-01T09:59:25;5.75;;;2.08;;
43146;SDS011;28752;48.266;7.402;2023-06-01T10:01:54;5.97;;;2.50;;
43146;SDS011;28752;48.266;7.402;2023-06-01T10:04:21;4.22;;;2.30;;
43146;SDS011;28752;48.266;7.402;2023-06-01T10:06:48;6.47;;;2.30;;
43146;SDS011;28752;48.266;7.402;2023-06-01T10:09:19;4.32;;;2.13;;
43146;SDS011;28752;48.266;7.402;2023-06-01T10:11:49;6.20;;;2.63;;
43146;SDS011;28752;48.266;7.402;2023-06-01T10:14:18;7.78;;;3.15;;
43146;SDS011;28752;48.266;7.402;2023-06-01T10:16:44;7.60;;;2.80;;
43146;SDS011;28752;48.266;7.402;2023-06-01T10:21:36;5.45;;;2.50;;
43146;SDS011;28752;48.266;7.402;2023-06-01T10:26:28;6.07;;;2.45;;
43146;SDS011;28752;48.266;7.402;2023-06-01T10:28:57;4.45;;;2.38;;
43146;SDS011;28752;48.266;7.402;2023-06-01T10:34:05;5.97;;;3.13;;
43146;SDS011;28752;48.266;7.402;2023-06-01T10:39:29;5.30;;;2.42;;
43146;SDS011;28752;48.266;7.402;2023-06-01T10:41:56;5.60;;;2.83;;
43146;SDS011;28752;48.266;7.402;2023-06-01T10:47:04;7.18;;;2.92;;
43146;SDS011;28752;48.266;7.402;2023-06-01T10:52:25;4.85;;;2.70;;
43146;SDS011;28752;48.266;7.402;2023-06-01T10:54:52;5.75;;;2.90;;
43146;SDS011;28752;48.266;7.402;2023-06-01T10:57:41;4.65;;;2.40;;
43146;SDS011;28752;48.266;7.402;2023-06-01T11:07:58;5.45;;;2.75;;
43146;SDS011;28752;48.266;7.402;2023-06-01T11:13:10;5.78;;;2.42;;
43146;SDS011;28752;48.266;7.402;2023-06-01T11:19:28;5.68;;;2.80;;
43146;SDS011;28752;48.266;7.402;2023-06-01T11:24:11;4.88;;;2.55;;
43146;SDS011;28752;48.266;7.402;2023-06-01T11:26:45;6.43;;;3.05;;
43146;SDS011;28752;48.266;7.402;2023-06-01T11:31:42;5.63;;;3.33;;
43146;SDS011;28752;48.266;7.402;2023-06-01T11:34:13;5.38;;;2.58;;
43146;SDS011;28752;48.266;7.402;2023-06-01T11:36:41;5.20;;;2.38;;
43146;SDS011;28752;48.266;7.402;2023-06-01T11:41:45;6.30;;;2.75;;
43146;SDS011;28752;48.266;7.402;2023-06-01T11:44:29;4.50;;;2.58;;
43146;SDS011;28752;48.266;7.402;2023-06-01T11:49:21;5.40;;;2.83;;
43146;SDS011;28752;48.266;7.402;2023-06-01T11:54:12;4.68;;;2.33;;
43146;SDS011;28752;48.266;7.402;2023-06-01T11:59:06;4.80;;;2.75;;
43146;SDS011;28752;48.266;7.402;2023-06-01T12:01:37;5.18;;;2.60;;
43146;SDS011;28752;48.266;7.402;2023-06-01T12:04:11;6.20;;;3.00;;
43146;SDS011;28752;48.266;7.402;2023-06-01T12:06:37;5.38;;;2.80;;
43146;SDS011;28752;48.266;7.402;2023-06-01T12:11:29;5.00;;;2.63;;
43146;SDS011;28752;48.266;7.402;2023-06-01T12:16:20;5.47;;;2.70;;
43146;SDS011;28752;48.266;7.402;2023-06-01T12:18:46;4.70;;;2.55;;
43146;SDS011;28752;48.266;7.402;2023-06-01T12:23:37;4.25;;;2.42;;
43146;SDS011;28752;48.266;7.402;2023-06-01T12:28:28;5.38;;;2.60;;
43146;SDS011;28752;48.266;7.402;2023-06-01T12:31:12;5.07;;;3.00;;
43146;SDS011;28752;48.266;7.402;2023-06-01T12:33:39;5.95;;;3.10;;
43146;SDS011;28752;48.266;7.402;2023-06-01T12:36:05;4.97;;;2.60;;
43146;SDS011;28752;48.266;7.402;2023-06-01T12:38:35;5.80;;;2.83;;
43146;SDS011;28752;48.266;7.402;2023-06-01T12:41:16;6.15;;;2.90;;
43146;SDS011;28752;48.266;7.402;2023-06-01T12:43:52;5.90;;;3.08;;
43146;SDS011;28752;48.266;7.402;2023-06-01T12:46:22;5.85;;;2.90;;
43146;SDS011;28752;48.266;7.402;2023-06-01T12:48:48;6.68;;;2.80;;
43146;SDS011;28752;48.266;7.402;2023-06-01T12:51:14;5.55;;;2.90;;
43146;SDS011;28752;48.266;7.402;2023-06-01T12:56:07;6.15;;;3.10;;
43146;SDS011;28752;48.266;7.402;2023-06-01T13:00:58;5.25;;;2.80;;
43146;SDS011;28752;48.266;7.402;2023-06-01T13:08:15;5.53;;;2.78;;
43146;SDS011;28752;48.266;7.402;2023-06-01T13:13:06;4.93;;;2.80;;
43146;SDS011;28752;48.266;7.402;2023-06-01T13:17:57;6.05;;;3.22;;
43146;SDS011;28752;48.266;7.402;2023-06-01T13:22:48;6.65;;;2.88;;
43146;SDS011;28752;48.266;7.402;2023-06-01T13:27:39;5.28;;;2.80;;
43146;SDS011;28752;48.266;7.402;2023-06-01T13:30:05;5.65;;;2.45;;
43146;SDS011;28752;48.266;7.402;2023-06-01T13:32:32;4.15;;;2.22;;
43146;SDS011;28752;48.266;7.402;2023-06-01T13:37:24;6.65;;;2.78;;
43146;SDS011;28752;48.266;7.402;2023-06-01T13:42:16;5.43;;;2.88;;
43146;SDS011;28752;48.266;7.402;2023-06-01T13:44:41;6.70;;;2.80;;
43146;SDS011;28752;48.266;7.402;2023-06-01T13:47:10;5.55;;;2.45;;
43146;SDS011;28752;48.266;7.402;2023-06-01T13:49:42;4.93;;;2.33;;
43146;SDS011;28752;48.266;7.402;2023-06-01T13:52:08;5.05;;;2.25;;
43146;SDS011;28752;48.266;7.402;2023-06-01T13:56:59;6.50;;;3.58;;
43146;SDS011;28752;48.266;7.402;2023-06-01T13:59:27;7.93;;;3.45;;
43146;SDS011;28752;48.266;7.402;2023-06-01T14:04:18;6.07;;;3.30;;
43146;SDS011;28752;48.266;7.402;2023-06-01T14:06:43;4.65;;;2.40;;
43146;SDS011;28752;48.266;7.402;2023-06-01T14:09:09;6.30;;;2.55;;
43146;SDS011;28752;48.266;7.402;2023-06-01T14:16:25;6.47;;;2.50;;
43146;SDS011;28752;48.266;7.402;2023-06-01T14:23:41;4.57;;;2.50;;
43146;SDS011;28752;48.266;7.402;2023-06-01T14:26:09;5.63;;;2.70;;
43146;SDS011;28752;48.266;7.402;2023-06-01T14:31:00;5.23;;;3.00;;
43146;SDS011;28752;48.266;7.402;2023-06-01T14:38:16;5.30;;;3.00;;
43146;SDS011;28752;48.266;7.402;2023-06-01T14:45:31;4.90;;;2.43;;
43146;SDS011;28752;48.266;7.402;2023-06-01T14:50:22;8.90;;;2.50;;
43146;SDS011;28752;48.266;7.402;2023-06-01T14:52:47;5.55;;;2.90;;
43146;SDS011;28752;48.266;7.402;2023-06-01T15:00:03;5.10;;;2.47;;
43146;SDS011;28752;48.266;7.402;2023-06-01T15:02:30;4.88;;;2.50;;
43146;SDS011;28752;48.266;7.402;2023-06-01T15:07:20;5.85;;;2.70;;
43146;SDS011;28752;48.266;7.402;2023-06-01T15:09:46;6.03;;;3.13;;
43146;SDS011;28752;48.266;7.402;2023-06-01T15:14:36;5.13;;;2.67;;
43146;SDS011;28752;48.266;7.402;2023-06-01T15:17:02;7.43;;;2.63;;
43146;SDS011;28752;48.266;7.402;2023-06-01T15:24:17;6.23;;;3.27;;
43146;SDS011;28752;48.266;7.402;2023-06-01T15:29:08;5.63;;;2.70;;
43146;SDS011;28752;48.266;7.402;2023-06-01T15:36:24;6.37;;;2.80;;
43146;SDS011;28752;48.266;7.402;2023-06-01T15:41:15;6.03;;;2.60;;
43146;SDS011;28752;48.266;7.402;2023-06-01T15:48:30;7.67;;;2.73;;
43146;SDS011;28752;48.266;7.402;2023-06-01T15:53:21;5.15;;;2.60;;
43146;SDS011;28752;48.266;7.402;2023-06-01T15:58:12;5.37;;;2.93;;
43146;SDS011;28752;48.266;7.402;2023-06-01T16:05:30;4.35;;;2.30;;
43146;SDS011;28752;48.266;7.402;2023-06-01T16:10:21;5.32;;;3.00;;
43146;SDS011;28752;48.266;7.402;2023-06-01T16:15:12;4.93;;;2.55;;
43146;SDS011;28752;48.266;7.402;2023-06-01T16:22:28;5.10;;;2.47;;
43146;SDS011;28752;48.266;7.402;2023-06-01T16:27:18;6.17;;;2.63;;
43146;SDS011;28752;48.266;7.402;2023-06-01T16:32:09;4.43;;;2.50;;
43146;SDS011;28752;48.266;7.402;2023-06-01T16:39:25;4.03;;;2.03;;
43146;SDS011;28752;48.266;7.402;2023-06-01T16:46:41;5.40;;;2.60;;
43146;SDS011;28752;48.266;7.402;2023-06-01T16:51:31;6.13;;;2.63;;
43146;SDS011;28752;48.266;7.402;2023-06-01T16:56:22;5.07;;;2.60;;
43146;SDS011;28752;48.266;7.402;2023-06-01T17:01:13;6.10;;;2.70;;
43146;SDS011;28752;48.266;7.402;2023-06-01T17:06:04;4.50;;;2.50;;
43146;SDS011;28752;48.266;7.402;2023-06-01T17:10:55;4.25;;;2.22;;
43146;SDS011;28752;48.266;7.402;2023-06-01T17:15:45;5.13;;;2.70;;
43146;SDS011;28752;48.266;7.402;2023-06-01T17:20:36;4.73;;;2.23;;
43146;SDS011;28752;48.266;7.402;2023-06-01T17:23:03;4.40;;;2.40;;
43146;SDS011;28752;48.266;7.402;2023-06-01T17:27:53;4.50;;;2.40;;
43146;SDS011;28752;48.266;7.402;2023-06-01T17:32:44;3.80;;;2.23;;
43146;SDS011;28752;48.266;7.402;2023-06-01T17:37:34;4.60;;;2.77;;
43146;SDS011;28752;48.266;7.402;2023-06-01T17:42:27;5.97;;;2.38;;
43146;SDS011;28752;48.266;7.402;2023-06-01T17:44:52;4.80;;;2.50;;
43146;SDS011;28752;48.266;7.402;2023-06-01T17:49:44;6.63;;;2.90;;
43146;SDS011;28752;48.266;7.402;2023-06-01T17:54:36;4.32;;;2.40;;
43146;SDS011;28752;48.266;7.402;2023-06-01T17:59:26;7.57;;;2.37;;
43146;SDS011;28752;48.266;7.402;2023-06-01T18:04:17;4.67;;;2.50;;
43146;SDS011;28752;48.266;7.402;2023-06-01T18:09:07;5.07;;;2.00;;
43146;SDS011;28752;48.266;7.402;2023-06-01T18:13:58;4.93;;;2.13;;
43146;SDS011;28752;48.266;7.402;2023-06-01T18:18:49;6.43;;;2.25;;
43146;SDS011;28752;48.266;7.402;2023-06-01T18:23:42;5.18;;;2.25;;
43146;SDS011;28752;48.266;7.402;2023-06-01T18:26:12;4.55;;;2.20;;
43146;SDS011;28752;48.266;7.402;2023-06-01T18:28:40;4.03;;;1.95;;
43146;SDS011;28752;48.266;7.402;2023-06-01T18:33:31;3.72;;;1.75;;
43146;SDS011;28752;48.266;7.402;2023-06-01T18:35:56;5.32;;;2.65;;
43146;SDS011;28752;48.266;7.402;2023-06-01T18:40:48;3.80;;;1.70;;
43146;SDS011;28752;48.266;7.402;2023-06-01T18:43:13;5.03;;;2.10;;
43146;SDS011;28752;48.266;7.402;2023-06-01T18:48:05;3.90;;;1.80;;
43146;SDS011;28752;48.266;7.402;2023-06-01T18:50:30;3.78;;;1.90;;
43146;SDS011;28752;48.266;7.402;2023-06-01T19:00:13;3.67;;;1.60;;
43146;SDS011;28752;48.266;7.402;2023-06-01T19:05:06;4.68;;;1.83;;
43146;SDS011;28752;48.266;7.402;2023-06-01T19:07:36;3.08;;;1.45;;
43146;SDS011;28752;48.266;7.402;2023-06-01T19:12:32;4.82;;;1.90;;
43146;SDS011;28752;48.266;7.402;2023-06-01T19:14:57;4.35;;;1.77;;
43146;SDS011;28752;48.266;7.402;2023-06-01T19:17:23;3.33;;;1.50;;
43146;SDS011;28752;48.266;7.402;2023-06-01T19:24:40;2.45;;;1.48;;
43146;SDS011;28752;48.266;7.402;2023-06-01T19:27:05;3.85;;;1.48;;
43146;SDS011;28752;48.266;7.402;2023-06-01T19:29:36;4.30;;;1.70;;
43146;SDS011;28752;48.266;7.402;2023-06-01T19:32:05;5.05;;;1.88;;
43146;SDS011;28752;48.266;7.402;2023-06-01T19:34:32;3.40;;;1.50;;
43146;SDS011;28752;48.266;7.402;2023-06-01T19:36:58;2.88;;;1.30;;
43146;SDS011;28752;48.266;7.402;2023-06-01T19:42:00;3.50;;;1.40;;
43146;SDS011;28752;48.266;7.402;2023-06-01T19:44:29;3.60;;;1.65;;
43146;SDS011;28752;48.266;7.402;2023-06-01T19:46:55;3.08;;;1.40;;